Terminal Aerodrome Forecast
Issued by NWS Omaha/Valley, NE

Home | Current Version | Previous Version | Text Only | Print | Product List | Glossary On
Versions: 1 2 3 4 5 6 7 8 9 10 11 12 13
000
FTUS43 KOAX 242322
TAFOMA
TAF
KOMA 242322Z 2500/2524 32014G26KT P6SM FEW250
     FM250200 33010KT P6SM FEW250
     FM250500 33006KT P6SM FEW250=

USA.gov is the U.S. government's official web portal to all federal, state and local government web resources and services.